Santos Dumont Airport

SBRJ · Rio de Janeiro, 巴西

罗盘
风向 的 风向 180° Santos Dumont Airport 2R/20L
风: 5 kt, 2 beaufort

5 kt

2 kt
改变
0 1.000 2.000 3.000 4.000 5.000
FEW 1.500 ft
BKN 5.000 ft
METAR SBRJ 080600Z 18005KT 9999 FEW015 BKN050 22/21 Q1008

METAR Santos Dumont Airport - SBRJ/SDU

Santos Dumont Airport是,巴西中的中型机场。 该机场有2条跑道: 2R/20L 和 2L/20R. 该领域的国际民航组织标志是SBRJ 它的国际航空运输协会代码是SDU.

这份报告是针对2022年12月8日 03:00, 当地时间在Santos Dumont Airport进行的。

机场观察

风向为180°,速度为5 kt。

可见度为10 km 或者更多。

有几云在1.500 ft的高度 和 碎云在5.000 ft的高度。 破损或更高的上限为5.000 ft。

温度和风寒是22 °C。 露点为21 °C,相对湿度为94%。 海平面上的气压为1008 hPa (QNH)。

白天

今天,太阳从04:59升起,在18:29降落。 这适用于Santos Dumont Airport,世界夏令时可能有所不同。 当地时间与世界标准时间之间的时差为-3 小时。 当前,没有夏令时有效。

公司介绍

我们没有关于这个机场的公司信息。

体会

到Vliegles.nl去找飞行课程,跳伞和其他飞行体验。 浏览页面,了解Santos Dumont Airport附近所有可用的活动。 你也可以使用搜索功能来寻找你所在地附近的特定飞行课程、跳伞或其他飞行体验。

跑道

Id 标题 侧风 逆风 侧风 %
2R/20L 020°-200° 2 kt 5 kt 34 %
2L/20R 020°-200° 2 kt 5 kt 34 %

逆风成分最大的方向会被突出显示,并用于横风计算。 这并不一定意味着这个方向在使用。

乌云

1.500 ft FEW 几云
5.000 ft BKN 碎云

温度 & 天气

温度 22 °C
露点 21 °C
相对湿度 94%
Kp-index 1 (0-9)

白天

日出
04:59 (1:34)
中午
11:44
日落
18:29

小工具

你想在你的网站上有一个关于Santos Dumont Airport的当前航空天气(METAR)的小部件吗?

显示HTML代码

我们和第三方通过cookies跟踪您在我们网站上的互联网行为。如果你继续,我们认为你同意我们的饼干政策